sensor_id;sensor_type;location;lat;lon;timestamp;temperature;humidity
68139;DHT22;54940;50.842;4.410;2023-05-10T00:00:51;13.70;99.90
68139;DHT22;54940;50.842;4.410;2023-05-10T00:03:21;13.70;99.90
68139;DHT22;54940;50.842;4.410;2023-05-10T00:05:47;13.70;99.90
68139;DHT22;54940;50.842;4.410;2023-05-10T00:08:15;13.70;99.90
68139;DHT22;54940;50.842;4.410;2023-05-10T00:10:41;13.70;99.90
68139;DHT22;54940;50.842;4.410;2023-05-10T00:13:09;13.70;99.90
68139;DHT22;54940;50.842;4.410;2023-05-10T00:15:34;13.70;99.90
68139;DHT22;54940;50.842;4.410;2023-05-10T00:18:00;13.80;99.90
68139;DHT22;54940;50.842;4.410;2023-05-10T00:20:26;13.80;99.90
68139;DHT22;54940;50.842;4.410;2023-05-10T00:22:52;13.80;99.90
68139;DHT22;54940;50.842;4.410;2023-05-10T00:25:17;13.80;99.90
68139;DHT22;54940;50.842;4.410;2023-05-10T00:27:45;13.80;99.90
68139;DHT22;54940;50.842;4.410;2023-05-10T00:30:11;13.80;99.90
68139;DHT22;54940;50.842;4.410;2023-05-10T00:32:37;13.80;99.90
68139;DHT22;54940;50.842;4.410;2023-05-10T00:35:02;13.70;99.90
68139;DHT22;54940;50.842;4.410;2023-05-10T00:37:28;13.80;99.90
68139;DHT22;54940;50.842;4.410;2023-05-10T00:39:54;13.80;99.90
68139;DHT22;54940;50.842;4.410;2023-05-10T00:42:19;13.80;99.90
68139;DHT22;54940;50.842;4.410;2023-05-10T00:44:45;13.80;99.90
68139;DHT22;54940;50.842;4.410;2023-05-10T00:47:12;13.70;99.90
68139;DHT22;54940;50.842;4.410;2023-05-10T00:49:38;13.70;99.90
68139;DHT22;54940;50.842;4.410;2023-05-10T00:52:04;13.70;99.90
68139;DHT22;54940;50.842;4.410;2023-05-10T00:54:30;13.70;99.90
68139;DHT22;54940;50.842;4.410;2023-05-10T00:56:55;13.70;99.90
68139;DHT22;54940;50.842;4.410;2023-05-10T00:59:26;13.80;99.90
68139;DHT22;54940;50.842;4.410;2023-05-10T01:01:53;13.70;99.90
68139;DHT22;54940;50.842;4.410;2023-05-10T01:04:19;13.70;99.90
68139;DHT22;54940;50.842;4.410;2023-05-10T01:06:47;13.70;99.90
68139;DHT22;54940;50.842;4.410;2023-05-10T01:09:12;13.70;99.90
68139;DHT22;54940;50.842;4.410;2023-05-10T01:11:39;13.70;99.90
68139;DHT22;54940;50.842;4.410;2023-05-10T01:14:08;13.80;99.90
68139;DHT22;54940;50.842;4.410;2023-05-10T01:16:37;13.70;99.90
68139;DHT22;54940;50.842;4.410;2023-05-10T01:19:05;13.80;99.90
68139;DHT22;54940;50.842;4.410;2023-05-10T01:21:43;13.80;99.90
68139;DHT22;54940;50.842;4.410;2023-05-10T01:24:24;13.80;99.90
68139;DHT22;54940;50.842;4.410;2023-05-10T01:27:27;13.70;99.90
68139;DHT22;54940;50.842;4.410;2023-05-10T01:32:48;13.80;99.90
68139;DHT22;54940;50.842;4.410;2023-05-10T01:35:23;13.80;99.90
68139;DHT22;54940;50.842;4.410;2023-05-10T01:40:54;13.80;99.90
68139;DHT22;54940;50.842;4.410;2023-05-10T01:43:30;13.80;99.90
68139;DHT22;54940;50.842;4.410;2023-05-10T01:46:09;13.70;99.90
68139;DHT22;54940;50.842;4.410;2023-05-10T01:48:42;13.80;99.90
68139;DHT22;54940;50.842;4.410;2023-05-10T01:51:15;13.80;99.90
68139;DHT22;54940;50.842;4.410;2023-05-10T01:53:42;13.90;99.90
68139;DHT22;54940;50.842;4.410;2023-05-10T01:56:11;13.90;99.90
68139;DHT22;54940;50.842;4.410;2023-05-10T01:58:39;13.80;99.90
68139;DHT22;54940;50.842;4.410;2023-05-10T02:01:06;13.80;99.90
68139;DHT22;54940;50.842;4.410;2023-05-10T02:03:35;13.70;99.90
68139;DHT22;54940;50.842;4.410;2023-05-10T02:06:05;13.70;99.90
68139;DHT22;54940;50.842;4.410;2023-05-10T02:08:35;13.70;99.90
68139;DHT22;54940;50.842;4.410;2023-05-10T02:11:02;13.80;99.90
68139;DHT22;54940;50.842;4.410;2023-05-10T02:13:29;13.80;99.90
68139;DHT22;54940;50.842;4.410;2023-05-10T02:15:59;13.70;99.90
68139;DHT22;54940;50.842;4.410;2023-05-10T02:18:26;13.70;99.90
68139;DHT22;54940;50.842;4.410;2023-05-10T02:20:54;13.70;99.90
68139;DHT22;54940;50.842;4.410;2023-05-10T02:23:20;13.60;99.90
68139;DHT22;54940;50.842;4.410;2023-05-10T02:25:48;13.60;99.90
68139;DHT22;54940;50.842;4.410;2023-05-10T02:28:17;13.60;99.90
68139;DHT22;54940;50.842;4.410;2023-05-10T02:30:44;13.60;99.90
68139;DHT22;54940;50.842;4.410;2023-05-10T02:33:12;13.60;99.90
68139;DHT22;54940;50.842;4.410;2023-05-10T02:35:39;13.60;99.90
68139;DHT22;54940;50.842;4.410;2023-05-10T02:38:06;13.50;99.90
68139;DHT22;54940;50.842;4.410;2023-05-10T02:40:32;13.50;99.90
68139;DHT22;54940;50.842;4.410;2023-05-10T02:42:59;13.50;99.90
68139;DHT22;54940;50.842;4.410;2023-05-10T02:45:30;13.50;99.90
68139;DHT22;54940;50.842;4.410;2023-05-10T02:47:59;13.50;99.90
68139;DHT22;54940;50.842;4.410;2023-05-10T02:50:33;13.50;99.90
68139;DHT22;54940;50.842;4.410;2023-05-10T02:53:09;13.50;99.90
68139;DHT22;54940;50.842;4.410;2023-05-10T02:55:38;13.60;99.90
68139;DHT22;54940;50.842;4.410;2023-05-10T02:58:05;13.60;99.90
68139;DHT22;54940;50.842;4.410;2023-05-10T03:00:31;13.50;99.90
68139;DHT22;54940;50.842;4.410;2023-05-10T03:02:56;13.40;99.90
68139;DHT22;54940;50.842;4.410;2023-05-10T03:05:22;13.50;99.90
68139;DHT22;54940;50.842;4.410;2023-05-10T03:07:49;13.60;99.90
68139;DHT22;54940;50.842;4.410;2023-05-10T03:10:15;13.50;99.90
68139;DHT22;54940;50.842;4.410;2023-05-10T03:15:59;13.50;99.90
68139;DHT22;54940;50.842;4.410;2023-05-10T03:18:54;13.50;99.90
68139;DHT22;54940;50.842;4.410;2023-05-10T03:21:22;13.50;99.90
68139;DHT22;54940;50.842;4.410;2023-05-10T03:24:01;13.60;99.90
68139;DHT22;54940;50.842;4.410;2023-05-10T03:26:29;13.60;99.90
68139;DHT22;54940;50.842;4.410;2023-05-10T03:28:57;13.50;99.90
68139;DHT22;54940;50.842;4.410;2023-05-10T03:31:24;13.50;99.90
68139;DHT22;54940;50.842;4.410;2023-05-10T03:33:51;13.40;99.90
68139;DHT22;54940;50.842;4.410;2023-05-10T03:36:19;13.40;99.90
68139;DHT22;54940;50.842;4.410;2023-05-10T03:38:48;13.50;99.90
68139;DHT22;54940;50.842;4.410;2023-05-10T03:41:14;13.40;99.90
68139;DHT22;54940;50.842;4.410;2023-05-10T03:43:39;13.30;99.90
68139;DHT22;54940;50.842;4.410;2023-05-10T03:46:06;13.40;99.90
68139;DHT22;54940;50.842;4.410;2023-05-10T03:48:34;13.40;99.90
68139;DHT22;54940;50.842;4.410;2023-05-10T03:51:00;13.50;99.90
68139;DHT22;54940;50.842;4.410;2023-05-10T03:53:26;13.40;99.90
68139;DHT22;54940;50.842;4.410;2023-05-10T03:55:52;13.50;99.90
68139;DHT22;54940;50.842;4.410;2023-05-10T03:58:20;13.40;99.90
68139;DHT22;54940;50.842;4.410;2023-05-10T04:00:45;13.40;99.90
68139;DHT22;54940;50.842;4.410;2023-05-10T04:03:14;13.40;99.90
68139;DHT22;54940;50.842;4.410;2023-05-10T04:05:43;13.40;99.90
68139;DHT22;54940;50.842;4.410;2023-05-10T04:08:10;13.40;99.90
68139;DHT22;54940;50.842;4.410;2023-05-10T04:10:36;13.50;99.90
68139;DHT22;54940;50.842;4.410;2023-05-10T04:13:05;13.50;99.90
68139;DHT22;54940;50.842;4.410;2023-05-10T04:15:32;13.60;99.90
68139;DHT22;54940;50.842;4.410;2023-05-10T04:17:58;13.60;99.90
68139;DHT22;54940;50.842;4.410;2023-05-10T04:20:23;13.60;99.90
68139;DHT22;54940;50.842;4.410;2023-05-10T04:22:49;13.60;99.90
68139;DHT22;54940;50.842;4.410;2023-05-10T04:25:15;13.50;99.90
68139;DHT22;54940;50.842;4.410;2023-05-10T04:27:43;13.50;99.90
68139;DHT22;54940;50.842;4.410;2023-05-10T04:30:09;13.50;99.90
68139;DHT22;54940;50.842;4.410;2023-05-10T04:32:34;13.50;99.90
68139;DHT22;54940;50.842;4.410;2023-05-10T04:35:00;13.50;99.90
68139;DHT22;54940;50.842;4.410;2023-05-10T04:37:28;13.40;99.90
68139;DHT22;54940;50.842;4.410;2023-05-10T04:39:59;13.50;99.90
68139;DHT22;54940;50.842;4.410;2023-05-10T04:42:25;13.50;99.90
68139;DHT22;54940;50.842;4.410;2023-05-10T04:44:51;13.50;99.90
68139;DHT22;54940;50.842;4.410;2023-05-10T04:47:17;13.50;99.90
68139;DHT22;54940;50.842;4.410;2023-05-10T04:49:43;13.50;99.90
68139;DHT22;54940;50.842;4.410;2023-05-10T04:52:08;13.50;99.90
68139;DHT22;54940;50.842;4.410;2023-05-10T04:54:34;13.50;99.90
68139;DHT22;54940;50.842;4.410;2023-05-10T04:57:00;13.50;99.90
68139;DHT22;54940;50.842;4.410;2023-05-10T04:59:25;13.50;99.90
68139;DHT22;54940;50.842;4.410;2023-05-10T05:01:51;13.50;99.90
68139;DHT22;54940;50.842;4.410;2023-05-10T05:04:22;13.50;99.90
68139;DHT22;54940;50.842;4.410;2023-05-10T05:06:49;13.60;99.90
68139;DHT22;54940;50.842;4.410;2023-05-10T05:09:14;13.70;99.90
68139;DHT22;54940;50.842;4.410;2023-05-10T05:11:43;13.70;99.90
68139;DHT22;54940;50.842;4.410;2023-05-10T05:14:08;13.60;99.90
68139;DHT22;54940;50.842;4.410;2023-05-10T05:16:36;13.70;99.90
68139;DHT22;54940;50.842;4.410;2023-05-10T05:19:02;13.70;99.90
68139;DHT22;54940;50.842;4.410;2023-05-10T05:21:27;13.70;99.90
68139;DHT22;54940;50.842;4.410;2023-05-10T05:23:54;13.70;99.90
68139;DHT22;54940;50.842;4.410;2023-05-10T05:26:19;13.60;99.90
68139;DHT22;54940;50.842;4.410;2023-05-10T05:28:45;13.60;99.90
68139;DHT22;54940;50.842;4.410;2023-05-10T05:31:13;13.60;99.90
68139;DHT22;54940;50.842;4.410;2023-05-10T05:33:39;13.50;99.90
68139;DHT22;54940;50.842;4.410;2023-05-10T05:36:05;13.60;99.90
68139;DHT22;54940;50.842;4.410;2023-05-10T05:38:31;13.60;99.90
68139;DHT22;54940;50.842;4.410;2023-05-10T05:40:57;13.60;99.90
68139;DHT22;54940;50.842;4.410;2023-05-10T05:43:25;13.50;99.90
68139;DHT22;54940;50.842;4.410;2023-05-10T05:45:52;13.50;99.90
68139;DHT22;54940;50.842;4.410;2023-05-10T05:48:19;13.50;99.90
68139;DHT22;54940;50.842;4.410;2023-05-10T05:50:44;13.50;99.90
68139;DHT22;54940;50.842;4.410;2023-05-10T05:53:13;13.50;99.90
68139;DHT22;54940;50.842;4.410;2023-05-10T05:55:54;13.50;99.90
68139;DHT22;54940;50.842;4.410;2023-05-10T05:58:22;13.60;99.90
68139;DHT22;54940;50.842;4.410;2023-05-10T06:00:51;13.50;99.90
68139;DHT22;54940;50.842;4.410;2023-05-10T06:03:19;13.50;99.90
68139;DHT22;54940;50.842;4.410;2023-05-10T06:05:48;13.60;99.90
68139;DHT22;54940;50.842;4.410;2023-05-10T06:08:16;13.50;99.90
68139;DHT22;54940;50.842;4.410;2023-05-10T06:10:41;13.50;99.90
68139;DHT22;54940;50.842;4.410;2023-05-10T06:13:07;13.50;99.90
68139;DHT22;54940;50.842;4.410;2023-05-10T06:15:33;13.50;99.90
68139;DHT22;54940;50.842;4.410;2023-05-10T06:17:58;13.40;99.90
68139;DHT22;54940;50.842;4.410;2023-05-10T06:20:24;13.40;99.90
68139;DHT22;54940;50.842;4.410;2023-05-10T06:22:50;13.50;99.90
68139;DHT22;54940;50.842;4.410;2023-05-10T06:25:16;13.50;99.90
68139;DHT22;54940;50.842;4.410;2023-05-10T06:27:43;13.30;99.90
68139;DHT22;54940;50.842;4.410;2023-05-10T06:30:12;13.20;99.90
68139;DHT22;54940;50.842;4.410;2023-05-10T06:32:38;13.10;99.90
68139;DHT22;54940;50.842;4.410;2023-05-10T06:35:04;13.10;99.90
68139;DHT22;54940;50.842;4.410;2023-05-10T06:37:32;13.10;99.90
68139;DHT22;54940;50.842;4.410;2023-05-10T06:39:58;13.00;99.90
68139;DHT22;54940;50.842;4.410;2023-05-10T06:42:23;13.10;99.90
68139;DHT22;54940;50.842;4.410;2023-05-10T06:44:50;13.10;99.90
68139;DHT22;54940;50.842;4.410;2023-05-10T06:47:16;13.10;99.90
68139;DHT22;54940;50.842;4.410;2023-05-10T06:49:42;13.00;99.90
68139;DHT22;54940;50.842;4.410;2023-05-10T06:52:08;13.10;99.90
68139;DHT22;54940;50.842;4.410;2023-05-10T06:54:33;13.00;99.90
68139;DHT22;54940;50.842;4.410;2023-05-10T06:57:02;13.00;99.90
68139;DHT22;54940;50.842;4.410;2023-05-10T06:59:30;13.00;99.90
68139;DHT22;54940;50.842;4.410;2023-05-10T07:01:56;12.90;99.90
68139;DHT22;54940;50.842;4.410;2023-05-10T07:04:24;12.90;99.90
68139;DHT22;54940;50.842;4.410;2023-05-10T07:06:50;12.90;99.90
68139;DHT22;54940;50.842;4.410;2023-05-10T07:09:16;12.90;99.90
68139;DHT22;54940;50.842;4.410;2023-05-10T07:11:41;12.90;99.90
68139;DHT22;54940;50.842;4.410;2023-05-10T07:14:07;13.00;99.90
68139;DHT22;54940;50.842;4.410;2023-05-10T07:16:32;12.80;99.90
68139;DHT22;54940;50.842;4.410;2023-05-10T07:18:58;12.80;99.90
68139;DHT22;54940;50.842;4.410;2023-05-10T07:21:26;12.90;99.90
68139;DHT22;54940;50.842;4.410;2023-05-10T07:23:54;12.90;99.90
68139;DHT22;54940;50.842;4.410;2023-05-10T07:26:19;12.90;99.90
68139;DHT22;54940;50.842;4.410;2023-05-10T07:28:48;13.00;99.90
68139;DHT22;54940;50.842;4.410;2023-05-10T07:31:15;13.00;99.90
68139;DHT22;54940;50.842;4.410;2023-05-10T07:33:41;13.00;99.90
68139;DHT22;54940;50.842;4.410;2023-05-10T07:36:07;12.90;99.90
68139;DHT22;54940;50.842;4.410;2023-05-10T07:38:33;12.90;99.90
68139;DHT22;54940;50.842;4.410;2023-05-10T07:40:58;12.90;99.90
68139;DHT22;54940;50.842;4.410;2023-05-10T07:43:24;12.90;99.90
68139;DHT22;54940;50.842;4.410;2023-05-10T07:45:49;13.00;99.90
68139;DHT22;54940;50.842;4.410;2023-05-10T07:48:17;13.00;99.90
68139;DHT22;54940;50.842;4.410;2023-05-10T07:50:43;13.00;99.90
68139;DHT22;54940;50.842;4.410;2023-05-10T07:53:11;13.00;99.90
68139;DHT22;54940;50.842;4.410;2023-05-10T07:55:39;13.00;99.90
68139;DHT22;54940;50.842;4.410;2023-05-10T07:58:05;13.00;99.90
68139;DHT22;54940;50.842;4.410;2023-05-10T08:00:34;13.00;99.90
68139;DHT22;54940;50.842;4.410;2023-05-10T08:03:00;13.00;99.90
68139;DHT22;54940;50.842;4.410;2023-05-10T08:05:25;12.90;99.90
68139;DHT22;54940;50.842;4.410;2023-05-10T08:07:51;12.90;99.90
68139;DHT22;54940;50.842;4.410;2023-05-10T08:10:16;12.90;99.90
68139;DHT22;54940;50.842;4.410;2023-05-10T08:12:42;12.90;99.90
68139;DHT22;54940;50.842;4.410;2023-05-10T08:15:08;12.90;99.90
68139;DHT22;54940;50.842;4.410;2023-05-10T08:17:36;12.90;99.90
68139;DHT22;54940;50.842;4.410;2023-05-10T08:20:02;13.00;99.90
68139;DHT22;54940;50.842;4.410;2023-05-10T08:22:31;13.00;99.90
68139;DHT22;54940;50.842;4.410;2023-05-10T08:24:56;13.10;99.90
68139;DHT22;54940;50.842;4.410;2023-05-10T08:27:22;13.20;99.90
68139;DHT22;54940;50.842;4.410;2023-05-10T08:29:48;13.30;99.90
68139;DHT22;54940;50.842;4.410;2023-05-10T08:32:13;13.30;99.90
68139;DHT22;54940;50.842;4.410;2023-05-10T08:34:39;13.30;99.90
68139;DHT22;54940;50.842;4.410;2023-05-10T08:37:05;13.40;99.90
68139;DHT22;54940;50.842;4.410;2023-05-10T08:39:37;13.30;99.90
68139;DHT22;54940;50.842;4.410;2023-05-10T08:42:04;13.30;99.90
68139;DHT22;54940;50.842;4.410;2023-05-10T08:44:34;13.40;99.90
68139;DHT22;54940;50.842;4.410;2023-05-10T08:47:05;13.40;99.90
68139;DHT22;54940;50.842;4.410;2023-05-10T08:49:33;13.50;99.90
68139;DHT22;54940;50.842;4.410;2023-05-10T08:52:01;13.40;99.90
68139;DHT22;54940;50.842;4.410;2023-05-10T08:54:28;13.40;99.90
68139;DHT22;54940;50.842;4.410;2023-05-10T08:56:57;13.40;99.90
68139;DHT22;54940;50.842;4.410;2023-05-10T08:59:23;13.50;99.90
68139;DHT22;54940;50.842;4.410;2023-05-10T09:01:49;13.60;99.90
68139;DHT22;54940;50.842;4.410;2023-05-10T09:04:19;13.70;99.90
68139;DHT22;54940;50.842;4.410;2023-05-10T09:06:45;13.60;99.90
68139;DHT22;54940;50.842;4.410;2023-05-10T09:09:12;13.60;99.90
68139;DHT22;54940;50.842;4.410;2023-05-10T09:11:37;13.50;99.90
68139;DHT22;54940;50.842;4.410;2023-05-10T09:14:03;13.50;99.90
68139;DHT22;54940;50.842;4.410;2023-05-10T09:16:29;13.50;99.90
68139;DHT22;54940;50.842;4.410;2023-05-10T09:18:55;13.50;99.90
68139;DHT22;54940;50.842;4.410;2023-05-10T09:21:21;13.50;99.90
68139;DHT22;54940;50.842;4.410;2023-05-10T09:23:47;13.50;99.90
68139;DHT22;54940;50.842;4.410;2023-05-10T09:26:15;13.50;99.90
68139;DHT22;54940;50.842;4.410;2023-05-10T09:28:56;13.60;99.90
68139;DHT22;54940;50.842;4.410;2023-05-10T09:31:22;13.60;99.90
68139;DHT22;54940;50.842;4.410;2023-05-10T09:33:52;13.50;99.90
68139;DHT22;54940;50.842;4.410;2023-05-10T09:36:18;13.50;99.90
68139;DHT22;54940;50.842;4.410;2023-05-10T09:38:48;13.50;99.90
68139;DHT22;54940;50.842;4.410;2023-05-10T09:41:21;13.40;99.90
68139;DHT22;54940;50.842;4.410;2023-05-10T09:43:47;13.40;99.90
68139;DHT22;54940;50.842;4.410;2023-05-10T09:46:15;13.40;99.90
68139;DHT22;54940;50.842;4.410;2023-05-10T09:48:46;13.30;99.90
68139;DHT22;54940;50.842;4.410;2023-05-10T09:51:22;13.30;99.90
68139;DHT22;54940;50.842;4.410;2023-05-10T09:54:12;13.20;99.90
68139;DHT22;54940;50.842;4.410;2023-05-10T09:56:41;13.20;99.90
68139;DHT22;54940;50.842;4.410;2023-05-10T09:59:11;13.40;99.90
68139;DHT22;54940;50.842;4.410;2023-05-10T10:01:40;13.40;99.90
68139;DHT22;54940;50.842;4.410;2023-05-10T10:04:07;13.40;99.90
68139;DHT22;54940;50.842;4.410;2023-05-10T10:06:39;13.50;99.90
68139;DHT22;54940;50.842;4.410;2023-05-10T10:09:06;13.50;99.90
68139;DHT22;54940;50.842;4.410;2023-05-10T10:11:35;13.50;99.90
68139;DHT22;54940;50.842;4.410;2023-05-10T10:14:01;13.50;99.90
68139;DHT22;54940;50.842;4.410;2023-05-10T10:16:29;13.40;99.90
68139;DHT22;54940;50.842;4.410;2023-05-10T10:18:55;13.40;99.90
68139;DHT22;54940;50.842;4.410;2023-05-10T10:21:26;13.40;99.90
68139;DHT22;54940;50.842;4.410;2023-05-10T10:23:52;13.30;99.90
68139;DHT22;54940;50.842;4.410;2023-05-10T10:26:21;13.30;99.90
68139;DHT22;54940;50.842;4.410;2023-05-10T10:31:46;13.40;99.90
68139;DHT22;54940;50.842;4.410;2023-05-10T10:34:25;13.40;99.90
68139;DHT22;54940;50.842;4.410;2023-05-10T10:36:52;13.40;99.90
68139;DHT22;54940;50.842;4.410;2023-05-10T10:39:20;13.40;99.90
68139;DHT22;54940;50.842;4.410;2023-05-10T10:41:53;13.50;99.90
68139;DHT22;54940;50.842;4.410;2023-05-10T10:54:51;13.80;99.90
68139;DHT22;54940;50.842;4.410;2023-05-10T10:57:19;13.80;99.90
68139;DHT22;54940;50.842;4.410;2023-05-10T10:59:46;13.80;99.90
68139;DHT22;54940;50.842;4.410;2023-05-10T11:07:52;13.90;99.90
68139;DHT22;54940;50.842;4.410;2023-05-10T11:10:22;13.90;99.90
68139;DHT22;54940;50.842;4.410;2023-05-10T11:13:02;13.90;99.90
68139;DHT22;54940;50.842;4.410;2023-05-10T11:15:43;14.00;99.90
68139;DHT22;54940;50.842;4.410;2023-05-10T11:18:17;14.00;99.90
68139;DHT22;54940;50.842;4.410;2023-05-10T11:20:55;14.20;99.90
68139;DHT22;54940;50.842;4.410;2023-05-10T11:23:20;14.20;99.90
68139;DHT22;54940;50.842;4.410;2023-05-10T11:25:48;14.40;99.90
68139;DHT22;54940;50.842;4.410;2023-05-10T11:28:16;14.40;99.90
68139;DHT22;54940;50.842;4.410;2023-05-10T11:30:43;14.50;99.90
68139;DHT22;54940;50.842;4.410;2023-05-10T11:33:14;14.50;99.90
68139;DHT22;54940;50.842;4.410;2023-05-10T11:35:40;14.60;99.90
68139;DHT22;54940;50.842;4.410;2023-05-10T11:38:10;14.60;99.90
68139;DHT22;54940;50.842;4.410;2023-05-10T11:40:36;14.60;99.90
68139;DHT22;54940;50.842;4.410;2023-05-10T11:43:03;14.70;99.90
68139;DHT22;54940;50.842;4.410;2023-05-10T11:45:29;14.80;99.90
68139;DHT22;54940;50.842;4.410;2023-05-10T11:47:57;14.90;99.90
68139;DHT22;54940;50.842;4.410;2023-05-10T11:50:23;14.80;99.90
68139;DHT22;54940;50.842;4.410;2023-05-10T11:52:52;14.80;99.90
68139;DHT22;54940;50.842;4.410;2023-05-10T11:55:18;14.90;99.90
68139;DHT22;54940;50.842;4.410;2023-05-10T11:57:44;15.00;99.90
68139;DHT22;54940;50.842;4.410;2023-05-10T12:00:12;15.00;99.90
68139;DHT22;54940;50.842;4.410;2023-05-10T12:02:38;15.10;99.90
68139;DHT22;54940;50.842;4.410;2023-05-10T12:05:07;15.20;99.90
68139;DHT22;54940;50.842;4.410;2023-05-10T12:07:35;15.30;99.90
68139;DHT22;54940;50.842;4.410;2023-05-10T12:10:07;15.40;99.90
68139;DHT22;54940;50.842;4.410;2023-05-10T12:12:38;15.40;99.90
68139;DHT22;54940;50.842;4.410;2023-05-10T12:15:05;15.50;99.90
68139;DHT22;54940;50.842;4.410;2023-05-10T12:17:34;15.50;99.90
68139;DHT22;54940;50.842;4.410;2023-05-10T12:20:20;15.50;99.90
68139;DHT22;54940;50.842;4.410;2023-05-10T12:22:56;15.50;99.90
68139;DHT22;54940;50.842;4.410;2023-05-10T12:25:29;15.60;99.90
68139;DHT22;54940;50.842;4.410;2023-05-10T12:27:57;15.70;99.90
68139;DHT22;54940;50.842;4.410;2023-05-10T12:30:25;15.80;99.90
68139;DHT22;54940;50.842;4.410;2023-05-10T12:32:52;15.90;99.90
68139;DHT22;54940;50.842;4.410;2023-05-10T12:35:18;16.00;99.90
68139;DHT22;54940;50.842;4.410;2023-05-10T12:37:47;16.10;99.90
68139;DHT22;54940;50.842;4.410;2023-05-10T12:40:13;16.20;99.90
68139;DHT22;54940;50.842;4.410;2023-05-10T12:42:39;16.30;99.90
68139;DHT22;54940;50.842;4.410;2023-05-10T12:45:10;16.30;99.90
68139;DHT22;54940;50.842;4.410;2023-05-10T12:47:36;16.20;99.90
68139;DHT22;54940;50.842;4.410;2023-05-10T12:50:02;16.30;99.90
68139;DHT22;54940;50.842;4.410;2023-05-10T12:52:30;16.30;99.90
68139;DHT22;54940;50.842;4.410;2023-05-10T12:54:57;16.30;99.90
68139;DHT22;54940;50.842;4.410;2023-05-10T12:57:22;16.30;99.90
68139;DHT22;54940;50.842;4.410;2023-05-10T12:59:51;16.30;99.90
68139;DHT22;54940;50.842;4.410;2023-05-10T13:02:18;16.30;99.90
68139;DHT22;54940;50.842;4.410;2023-05-10T13:04:45;16.30;99.90
68139;DHT22;54940;50.842;4.410;2023-05-10T13:07:13;16.20;99.90
68139;DHT22;54940;50.842;4.410;2023-05-10T13:09:39;16.10;99.90
68139;DHT22;54940;50.842;4.410;2023-05-10T13:12:07;16.20;99.90
68139;DHT22;54940;50.842;4.410;2023-05-10T13:14:33;16.10;99.90
68139;DHT22;54940;50.842;4.410;2023-05-10T13:16:59;16.20;99.90
68139;DHT22;54940;50.842;4.410;2023-05-10T13:19:25;16.30;99.90
68139;DHT22;54940;50.842;4.410;2023-05-10T13:21:51;16.40;99.90
68139;DHT22;54940;50.842;4.410;2023-05-10T13:24:17;16.40;99.90
68139;DHT22;54940;50.842;4.410;2023-05-10T13:26:43;16.40;99.90
68139;DHT22;54940;50.842;4.410;2023-05-10T13:29:09;16.50;99.90
68139;DHT22;54940;50.842;4.410;2023-05-10T13:31:35;16.50;99.90
68139;DHT22;54940;50.842;4.410;2023-05-10T13:34:01;16.50;99.90
68139;DHT22;54940;50.842;4.410;2023-05-10T13:36:28;16.50;99.90
68139;DHT22;54940;50.842;4.410;2023-05-10T13:38:53;16.50;99.90
68139;DHT22;54940;50.842;4.410;2023-05-10T13:41:19;16.40;99.90
68139;DHT22;54940;50.842;4.410;2023-05-10T13:43:45;16.40;99.90
68139;DHT22;54940;50.842;4.410;2023-05-10T13:46:11;16.30;99.90
68139;DHT22;54940;50.842;4.410;2023-05-10T13:48:36;16.30;99.90
68139;DHT22;54940;50.842;4.410;2023-05-10T13:51:02;16.40;99.90
68139;DHT22;54940;50.842;4.410;2023-05-10T13:53:31;16.50;99.90
68139;DHT22;54940;50.842;4.410;2023-05-10T13:55:56;16.50;99.90
68139;DHT22;54940;50.842;4.410;2023-05-10T13:58:22;16.60;99.90
68139;DHT22;54940;50.842;4.410;2023-05-10T14:00:48;16.70;99.90
68139;DHT22;54940;50.842;4.410;2023-05-10T14:03:14;16.70;99.90
68139;DHT22;54940;50.842;4.410;2023-05-10T14:05:40;16.70;99.90
68139;DHT22;54940;50.842;4.410;2023-05-10T14:08:07;16.70;99.90
68139;DHT22;54940;50.842;4.410;2023-05-10T14:10:34;16.70;99.90
68139;DHT22;54940;50.842;4.410;2023-05-10T14:13:00;16.60;99.90
68139;DHT22;54940;50.842;4.410;2023-05-10T14:15:26;16.50;99.90
68139;DHT22;54940;50.842;4.410;2023-05-10T14:17:52;16.50;99.90
68139;DHT22;54940;50.842;4.410;2023-05-10T14:20:17;16.50;99.90
68139;DHT22;54940;50.842;4.410;2023-05-10T14:22:45;16.50;99.90
68139;DHT22;54940;50.842;4.410;2023-05-10T14:25:11;16.60;99.90
68139;DHT22;54940;50.842;4.410;2023-05-10T14:27:36;16.60;99.90
68139;DHT22;54940;50.842;4.410;2023-05-10T14:30:05;16.60;99.90
68139;DHT22;54940;50.842;4.410;2023-05-10T14:32:31;16.50;99.90
68139;DHT22;54940;50.842;4.410;2023-05-10T14:34:57;16.50;99.90
68139;DHT22;54940;50.842;4.410;2023-05-10T14:37:23;16.50;99.90
68139;DHT22;54940;50.842;4.410;2023-05-10T14:39:48;16.60;99.90
68139;DHT22;54940;50.842;4.410;2023-05-10T14:42:17;16.70;99.90
68139;DHT22;54940;50.842;4.410;2023-05-10T14:44:43;16.70;99.90
68139;DHT22;54940;50.842;4.410;2023-05-10T14:47:08;16.70;99.90
68139;DHT22;54940;50.842;4.410;2023-05-10T14:49:34;16.60;99.90
68139;DHT22;54940;50.842;4.410;2023-05-10T14:52:00;16.60;99.90
68139;DHT22;54940;50.842;4.410;2023-05-10T14:54:26;16.40;99.90
68139;DHT22;54940;50.842;4.410;2023-05-10T14:56:53;16.30;99.90
68139;DHT22;54940;50.842;4.410;2023-05-10T14:59:21;16.30;99.90
68139;DHT22;54940;50.842;4.410;2023-05-10T15:01:47;16.20;99.90
68139;DHT22;54940;50.842;4.410;2023-05-10T15:04:13;16.10;99.90
68139;DHT22;54940;50.842;4.410;2023-05-10T15:06:41;16.00;99.90
68139;DHT22;54940;50.842;4.410;2023-05-10T15:09:07;16.00;99.90
68139;DHT22;54940;50.842;4.410;2023-05-10T15:11:32;15.90;99.90
68139;DHT22;54940;50.842;4.410;2023-05-10T15:14:01;15.90;99.90
68139;DHT22;54940;50.842;4.410;2023-05-10T15:16:27;15.70;99.90
68139;DHT22;54940;50.842;4.410;2023-05-10T15:18:53;15.60;99.90
68139;DHT22;54940;50.842;4.410;2023-05-10T15:21:18;15.40;99.90
68139;DHT22;54940;50.842;4.410;2023-05-10T15:23:44;15.40;99.90
68139;DHT22;54940;50.842;4.410;2023-05-10T15:26:09;15.30;99.90
68139;DHT22;54940;50.842;4.410;2023-05-10T15:28:35;15.30;99.90
68139;DHT22;54940;50.842;4.410;2023-05-10T15:31:01;15.30;99.90
68139;DHT22;54940;50.842;4.410;2023-05-10T15:33:26;15.30;99.90
68139;DHT22;54940;50.842;4.410;2023-05-10T15:35:53;15.20;99.90
68139;DHT22;54940;50.842;4.410;2023-05-10T15:38:19;15.10;99.90
68139;DHT22;54940;50.842;4.410;2023-05-10T15:40:45;15.20;99.90
68139;DHT22;54940;50.842;4.410;2023-05-10T15:43:13;15.10;99.90
68139;DHT22;54940;50.842;4.410;2023-05-10T15:45:39;15.20;99.90
68139;DHT22;54940;50.842;4.410;2023-05-10T15:48:05;15.10;99.90
68139;DHT22;54940;50.842;4.410;2023-05-10T15:50:30;15.20;99.90
68139;DHT22;54940;50.842;4.410;2023-05-10T15:52:56;15.20;99.90
68139;DHT22;54940;50.842;4.410;2023-05-10T15:55:22;15.20;99.90
68139;DHT22;54940;50.842;4.410;2023-05-10T15:57:47;15.30;99.90
68139;DHT22;54940;50.842;4.410;2023-05-10T16:00:16;15.40;99.90